Smartville, California
Current Conditions -  °F | °C
As of 3:58 AM on Saturday 25 Oct 2014 (Local Time) from KBAB Reporting Station
Clear Clear  
Wind Chill: 17°   Ceiling: Unl
Heat Index: 17°   Visibility: 10mi
Dew Point: 12°   Wind: 15mph
Humidity: 71%   Direction: 120°ESE
Pressure: 29.88"   Gusts: NA
Location:  39.21°N, 121.3°W
Report Text: KBAB 251058Z AUTO 12013KT 10SM CLR 17/12 A2988 RMK AO2 SLP193 T01670115 $
Loading
Personal Weather Stations






























Interactive Weather Map
Tropical Storm Tracking
New forecast layout! Learn more

10-Day Weather Forecast

Advertisements
Track Severe Weather on mobile